sensor_id;sensor_type;location;lat;lon;timestamp;temperature;humidity
66401;HTU21D;53211;45.040;38.788;2022-12-10T00:01:23;5.91;80.06
66401;HTU21D;53211;45.040;38.788;2022-12-10T00:03:50;5.85;80.04
66401;HTU21D;53211;45.040;38.788;2022-12-10T00:06:18;5.81;80.06
66401;HTU21D;53211;45.040;38.788;2022-12-10T00:08:45;5.78;80.14
66401;HTU21D;53211;45.040;38.788;2022-12-10T00:11:13;5.75;80.22
66401;HTU21D;53211;45.040;38.788;2022-12-10T00:13:39;5.71;80.32
66401;HTU21D;53211;45.040;38.788;2022-12-10T00:16:10;5.70;80.29
66401;HTU21D;53211;45.040;38.788;2022-12-10T00:18:37;5.72;80.51
66401;HTU21D;53211;45.040;38.788;2022-12-10T00:21:08;5.76;80.56
66401;HTU21D;53211;45.040;38.788;2022-12-10T00:23:35;5.81;80.94
66401;HTU21D;53211;45.040;38.788;2022-12-10T00:26:13;5.92;81.16
66401;HTU21D;53211;45.040;38.788;2022-12-10T00:28:40;6.01;81.20
66401;HTU21D;53211;45.040;38.788;2022-12-10T00:31:09;6.12;81.37
66401;HTU21D;53211;45.040;38.788;2022-12-10T00:33:36;6.25;81.14
66401;HTU21D;53211;45.040;38.788;2022-12-10T00:36:07;6.38;81.12
66401;HTU21D;53211;45.040;38.788;2022-12-10T00:38:34;6.49;81.16
66401;HTU21D;53211;45.040;38.788;2022-12-10T00:41:00;6.57;81.08
66401;HTU21D;53211;45.040;38.788;2022-12-10T00:43:26;6.68;81.00
66401;HTU21D;53211;45.040;38.788;2022-12-10T00:45:53;6.76;80.89
66401;HTU21D;53211;45.040;38.788;2022-12-10T00:48:21;6.86;80.88
66401;HTU21D;53211;45.040;38.788;2022-12-10T00:51:03;6.97;80.96
66401;HTU21D;53211;45.040;38.788;2022-12-10T00:53:30;7.08;80.94
66401;HTU21D;53211;45.040;38.788;2022-12-10T00:55:57;7.19;80.89
66401;HTU21D;53211;45.040;38.788;2022-12-10T00:58:27;7.29;80.95
66401;HTU21D;53211;45.040;38.788;2022-12-10T01:00:53;7.39;80.85
66401;HTU21D;53211;45.040;38.788;2022-12-10T01:03:19;7.49;81.05
66401;HTU21D;53211;45.040;38.788;2022-12-10T01:05:45;7.62;81.10
66401;HTU21D;53211;45.040;38.788;2022-12-10T01:08:12;7.73;81.10
66401;HTU21D;53211;45.040;38.788;2022-12-10T01:10:38;7.84;81.13
66401;HTU21D;53211;45.040;38.788;2022-12-10T01:13:04;7.93;81.11
66401;HTU21D;53211;45.040;38.788;2022-12-10T01:15:30;8.04;80.98
66401;HTU21D;53211;45.040;38.788;2022-12-10T01:17:56;8.14;80.92
66401;HTU21D;53211;45.040;38.788;2022-12-10T01:20:22;8.21;80.98
66401;HTU21D;53211;45.040;38.788;2022-12-10T01:22:48;8.31;80.91
66401;HTU21D;53211;45.040;38.788;2022-12-10T01:25:14;8.38;80.91
66401;HTU21D;53211;45.040;38.788;2022-12-10T01:27:40;8.44;80.94
66401;HTU21D;53211;45.040;38.788;2022-12-10T01:30:06;8.50;80.98
66401;HTU21D;53211;45.040;38.788;2022-12-10T01:32:35;8.56;80.89
66401;HTU21D;53211;45.040;38.788;2022-12-10T01:35:01;8.58;80.85
66401;HTU21D;53211;45.040;38.788;2022-12-10T01:37:27;8.61;80.86
66401;HTU21D;53211;45.040;38.788;2022-12-10T01:39:53;8.63;80.81
66401;HTU21D;53211;45.040;38.788;2022-12-10T01:42:19;8.67;80.81
66401;HTU21D;53211;45.040;38.788;2022-12-10T01:47:14;8.70;80.79
66401;HTU21D;53211;45.040;38.788;2022-12-10T01:49:40;8.72;80.85
66401;HTU21D;53211;45.040;38.788;2022-12-10T01:52:09;8.71;80.88
66401;HTU21D;53211;45.040;38.788;2022-12-10T01:54:42;8.72;80.87
66401;HTU21D;53211;45.040;38.788;2022-12-10T01:59:38;8.74;80.86
66401;HTU21D;53211;45.040;38.788;2022-12-10T02:02:35;8.76;80.89
66401;HTU21D;53211;45.040;38.788;2022-12-10T02:05:25;8.76;80.91
66401;HTU21D;53211;45.040;38.788;2022-12-10T02:08:19;8.76;80.93
66401;HTU21D;53211;45.040;38.788;2022-12-10T02:16:26;8.78;80.88
66401;HTU21D;53211;45.040;38.788;2022-12-10T02:19:07;8.77;80.91
66401;HTU21D;53211;45.040;38.788;2022-12-10T02:21:39;8.76;80.90
66401;HTU21D;53211;45.040;38.788;2022-12-10T02:24:11;8.77;80.91
66401;HTU21D;53211;45.040;38.788;2022-12-10T02:29:27;8.76;80.91
66401;HTU21D;53211;45.040;38.788;2022-12-10T02:32:00;8.76;80.91
66401;HTU21D;53211;45.040;38.788;2022-12-10T02:34:35;8.76;80.90
66401;HTU21D;53211;45.040;38.788;2022-12-10T02:37:08;8.78;80.91
66401;HTU21D;53211;45.040;38.788;2022-12-10T02:39:40;8.77;80.92
66401;HTU21D;53211;45.040;38.788;2022-12-10T02:42:10;8.77;80.94
66401;HTU21D;53211;45.040;38.788;2022-12-10T02:44:38;8.78;80.94
66401;HTU21D;53211;45.040;38.788;2022-12-10T02:47:07;8.78;80.95
66401;HTU21D;53211;45.040;38.788;2022-12-10T02:49:39;8.77;80.96
66401;HTU21D;53211;45.040;38.788;2022-12-10T02:52:12;8.78;81.00
66401;HTU21D;53211;45.040;38.788;2022-12-10T02:54:43;8.77;80.99
66401;HTU21D;53211;45.040;38.788;2022-12-10T03:05:23;8.79;81.07
66401;HTU21D;53211;45.040;38.788;2022-12-10T03:07:55;8.79;81.08
66401;HTU21D;53211;45.040;38.788;2022-12-10T03:13:00;8.80;81.15
66401;HTU21D;53211;45.040;38.788;2022-12-10T03:15:27;8.79;81.13
66401;HTU21D;53211;45.040;38.788;2022-12-10T03:17:56;8.80;81.21
66401;HTU21D;53211;45.040;38.788;2022-12-10T03:20:23;8.81;81.20
66401;HTU21D;53211;45.040;38.788;2022-12-10T03:22:50;8.80;81.23
66401;HTU21D;53211;45.040;38.788;2022-12-10T03:25:24;8.79;81.26
66401;HTU21D;53211;45.040;38.788;2022-12-10T03:27:53;8.80;81.32
66401;HTU21D;53211;45.040;38.788;2022-12-10T03:30:19;8.81;81.36
66401;HTU21D;53211;45.040;38.788;2022-12-10T03:32:46;8.79;81.35
66401;HTU21D;53211;45.040;38.788;2022-12-10T03:35:13;8.78;0.00
66401;HTU21D;53211;45.040;38.788;2022-12-10T03:37:39;8.76;81.35
66401;HTU21D;53211;45.040;38.788;2022-12-10T03:40:06;8.74;81.47
66401;HTU21D;53211;45.040;38.788;2022-12-10T03:42:36;8.72;81.49
66401;HTU21D;53211;45.040;38.788;2022-12-10T03:45:02;8.71;81.55
66401;HTU21D;53211;45.040;38.788;2022-12-10T03:47:29;8.72;81.62
66401;HTU21D;53211;45.040;38.788;2022-12-10T03:49:54;8.70;81.60
66401;HTU21D;53211;45.040;38.788;2022-12-10T03:52:21;8.68;81.61
66401;HTU21D;53211;45.040;38.788;2022-12-10T03:54:47;8.65;81.67
66401;HTU21D;53211;45.040;38.788;2022-12-10T03:57:13;8.61;81.62
66401;HTU21D;53211;45.040;38.788;2022-12-10T03:59:39;8.56;81.65
66401;HTU21D;53211;45.040;38.788;2022-12-10T04:02:04;8.48;81.65
66401;HTU21D;53211;45.040;38.788;2022-12-10T04:04:31;8.42;81.73
66401;HTU21D;53211;45.040;38.788;2022-12-10T04:06:56;8.33;81.83
66401;HTU21D;53211;45.040;38.788;2022-12-10T04:09:23;8.27;81.85
66401;HTU21D;53211;45.040;38.788;2022-12-10T04:11:49;8.20;81.85
66401;HTU21D;53211;45.040;38.788;2022-12-10T04:14:15;8.14;81.84
66401;HTU21D;53211;45.040;38.788;2022-12-10T04:17:00;8.06;81.94
66401;HTU21D;53211;45.040;38.788;2022-12-10T04:19:27;8.02;82.03
66401;HTU21D;53211;45.040;38.788;2022-12-10T04:21:54;7.97;82.11
66401;HTU21D;53211;45.040;38.788;2022-12-10T04:24:38;7.92;82.13
66401;HTU21D;53211;45.040;38.788;2022-12-10T04:27:25;7.88;82.16
66401;HTU21D;53211;45.040;38.788;2022-12-10T04:29:52;7.84;82.29
66401;HTU21D;53211;45.040;38.788;2022-12-10T04:32:19;7.82;82.32
66401;HTU21D;53211;45.040;38.788;2022-12-10T04:34:45;7.78;82.32
66401;HTU21D;53211;45.040;38.788;2022-12-10T04:37:12;7.76;82.45
66401;HTU21D;53211;45.040;38.788;2022-12-10T04:39:38;7.75;82.39
66401;HTU21D;53211;45.040;38.788;2022-12-10T04:42:05;7.75;82.45
66401;HTU21D;53211;45.040;38.788;2022-12-10T04:44:31;7.76;82.46
66401;HTU21D;53211;45.040;38.788;2022-12-10T04:46:58;7.81;82.53
66401;HTU21D;53211;45.040;38.788;2022-12-10T04:49:24;7.85;82.60
66401;HTU21D;53211;45.040;38.788;2022-12-10T04:51:51;7.90;82.58
66401;HTU21D;53211;45.040;38.788;2022-12-10T04:54:19;7.96;82.55
66401;HTU21D;53211;45.040;38.788;2022-12-10T04:56:45;8.01;82.47
66401;HTU21D;53211;45.040;38.788;2022-12-10T04:59:11;8.04;82.42
66401;HTU21D;53211;45.040;38.788;2022-12-10T05:01:38;8.09;0.00
66401;HTU21D;53211;45.040;38.788;2022-12-10T05:04:06;8.12;82.23
66401;HTU21D;53211;45.040;38.788;2022-12-10T05:06:33;8.12;82.07
66401;HTU21D;53211;45.040;38.788;2022-12-10T05:09:00;8.11;82.00
66401;HTU21D;53211;45.040;38.788;2022-12-10T05:11:29;8.07;81.93
66401;HTU21D;53211;45.040;38.788;2022-12-10T05:13:56;8.03;81.94
66401;HTU21D;53211;45.040;38.788;2022-12-10T05:16:26;8.00;82.02
66401;HTU21D;53211;45.040;38.788;2022-12-10T05:18:54;7.99;82.08
66401;HTU21D;53211;45.040;38.788;2022-12-10T05:21:21;0.00;82.10
66401;HTU21D;53211;45.040;38.788;2022-12-10T05:23:50;7.99;82.09
66401;HTU21D;53211;45.040;38.788;2022-12-10T05:26:21;7.98;82.08
66401;HTU21D;53211;45.040;38.788;2022-12-10T05:28:52;7.98;82.07
66401;HTU21D;53211;45.040;38.788;2022-12-10T05:31:28;7.99;82.10
66401;HTU21D;53211;45.040;38.788;2022-12-10T05:33:56;8.00;82.21
66401;HTU21D;53211;45.040;38.788;2022-12-10T05:36:27;8.03;82.34
66401;HTU21D;53211;45.040;38.788;2022-12-10T05:38:54;8.12;82.39
66401;HTU21D;53211;45.040;38.788;2022-12-10T05:41:24;8.22;82.56
66401;HTU21D;53211;45.040;38.788;2022-12-10T05:43:53;8.36;82.58
66401;HTU21D;53211;45.040;38.788;2022-12-10T05:46:22;8.51;82.65
66401;HTU21D;53211;45.040;38.788;2022-12-10T05:48:48;8.68;82.62
66401;HTU21D;53211;45.040;38.788;2022-12-10T05:51:17;8.87;82.52
66401;HTU21D;53211;45.040;38.788;2022-12-10T05:53:43;9.05;82.46
66401;HTU21D;53211;45.040;38.788;2022-12-10T05:56:14;9.22;82.39
66401;HTU21D;53211;45.040;38.788;2022-12-10T05:58:42;9.40;82.26
66401;HTU21D;53211;45.040;38.788;2022-12-10T06:01:18;9.54;82.22
66401;HTU21D;53211;45.040;38.788;2022-12-10T06:03:44;9.69;82.18
66401;HTU21D;53211;45.040;38.788;2022-12-10T06:06:11;9.81;82.14
66401;HTU21D;53211;45.040;38.788;2022-12-10T06:08:38;9.93;82.05
66401;HTU21D;53211;45.040;38.788;2022-12-10T06:11:09;10.07;82.10
66401;HTU21D;53211;45.040;38.788;2022-12-10T06:13:36;10.21;82.10
66401;HTU21D;53211;45.040;38.788;2022-12-10T06:16:06;10.30;82.13
66401;HTU21D;53211;45.040;38.788;2022-12-10T06:18:34;10.44;82.13
66401;HTU21D;53211;45.040;38.788;2022-12-10T06:21:03;10.54;82.14
66401;HTU21D;53211;45.040;38.788;2022-12-10T06:23:29;10.65;82.08
66401;HTU21D;53211;45.040;38.788;2022-12-10T06:25:55;10.72;82.05
66401;HTU21D;53211;45.040;38.788;2022-12-10T06:28:21;10.80;82.06
66401;HTU21D;53211;45.040;38.788;2022-12-10T06:30:47;10.88;82.04
66401;HTU21D;53211;45.040;38.788;2022-12-10T06:33:13;10.97;82.06
66401;HTU21D;53211;45.040;38.788;2022-12-10T06:35:39;11.05;82.07
66401;HTU21D;53211;45.040;38.788;2022-12-10T06:38:05;11.17;82.03
66401;HTU21D;53211;45.040;38.788;2022-12-10T06:40:31;11.30;81.96
66401;HTU21D;53211;45.040;38.788;2022-12-10T06:42:57;11.42;81.88
66401;HTU21D;53211;45.040;38.788;2022-12-10T06:45:23;11.56;81.92
66401;HTU21D;53211;45.040;38.788;2022-12-10T06:47:49;11.72;81.79
66401;HTU21D;53211;45.040;38.788;2022-12-10T06:50:15;11.89;81.84
66401;HTU21D;53211;45.040;38.788;2022-12-10T06:52:41;12.08;81.59
66401;HTU21D;53211;45.040;38.788;2022-12-10T06:55:08;12.27;81.33
66401;HTU21D;53211;45.040;38.788;2022-12-10T06:57:34;12.44;81.17
66401;HTU21D;53211;45.040;38.788;2022-12-10T07:00:00;12.60;80.92
66401;HTU21D;53211;45.040;38.788;2022-12-10T07:02:26;12.75;80.78
66401;HTU21D;53211;45.040;38.788;2022-12-10T07:04:52;12.88;80.69
66401;HTU21D;53211;45.040;38.788;2022-12-10T07:07:22;13.04;80.52
66401;HTU21D;53211;45.040;38.788;2022-12-10T07:09:48;13.16;80.43
66401;HTU21D;53211;45.040;38.788;2022-12-10T07:12:14;13.27;80.24
66401;HTU21D;53211;45.040;38.788;2022-12-10T07:14:40;13.36;80.07
66401;HTU21D;53211;45.040;38.788;2022-12-10T07:17:06;13.44;80.06
66401;HTU21D;53211;45.040;38.788;2022-12-10T07:19:32;13.48;79.91
66401;HTU21D;53211;45.040;38.788;2022-12-10T07:21:58;13.53;79.95
66401;HTU21D;53211;45.040;38.788;2022-12-10T07:24:24;13.58;79.92
66401;HTU21D;53211;45.040;38.788;2022-12-10T07:26:50;13.61;79.91
66401;HTU21D;53211;45.040;38.788;2022-12-10T07:29:20;13.64;79.94
66401;HTU21D;53211;45.040;38.788;2022-12-10T07:31:48;13.65;79.63
66401;HTU21D;53211;45.040;38.788;2022-12-10T07:34:17;13.67;79.66
66401;HTU21D;53211;45.040;38.788;2022-12-10T07:36:43;13.65;79.72
66401;HTU21D;53211;45.040;38.788;2022-12-10T07:39:10;13.65;79.73
66401;HTU21D;53211;45.040;38.788;2022-12-10T07:41:44;13.66;79.66
66401;HTU21D;53211;45.040;38.788;2022-12-10T07:44:11;13.66;79.62
66401;HTU21D;53211;45.040;38.788;2022-12-10T07:46:38;13.65;79.53
66401;HTU21D;53211;45.040;38.788;2022-12-10T07:49:04;13.67;79.56
66401;HTU21D;53211;45.040;38.788;2022-12-10T07:51:30;13.69;79.69
66401;HTU21D;53211;45.040;38.788;2022-12-10T07:53:56;13.76;79.80
66401;HTU21D;53211;45.040;38.788;2022-12-10T07:56:23;13.83;79.74
66401;HTU21D;53211;45.040;38.788;2022-12-10T07:58:50;13.90;79.65
66401;HTU21D;53211;45.040;38.788;2022-12-10T08:01:23;13.93;79.57
66401;HTU21D;53211;45.040;38.788;2022-12-10T08:03:50;13.97;79.59
66401;HTU21D;53211;45.040;38.788;2022-12-10T08:06:18;13.98;79.57
66401;HTU21D;53211;45.040;38.788;2022-12-10T08:08:44;14.00;79.63
66401;HTU21D;53211;45.040;38.788;2022-12-10T08:11:12;14.01;79.62
66401;HTU21D;53211;45.040;38.788;2022-12-10T08:13:39;14.03;79.75
66401;HTU21D;53211;45.040;38.788;2022-12-10T08:16:08;14.06;79.82
66401;HTU21D;53211;45.040;38.788;2022-12-10T08:18:35;14.09;79.76
66401;HTU21D;53211;45.040;38.788;2022-12-10T08:21:10;14.09;79.72
66401;HTU21D;53211;45.040;38.788;2022-12-10T08:23:37;14.10;79.78
66401;HTU21D;53211;45.040;38.788;2022-12-10T08:26:05;14.11;79.70
66401;HTU21D;53211;45.040;38.788;2022-12-10T08:28:32;14.13;79.72
66401;HTU21D;53211;45.040;38.788;2022-12-10T08:30:58;14.14;79.61
66401;HTU21D;53211;45.040;38.788;2022-12-10T08:33:24;14.17;79.63
66401;HTU21D;53211;45.040;38.788;2022-12-10T08:35:50;14.20;79.64
66401;HTU21D;53211;45.040;38.788;2022-12-10T08:38:16;14.24;79.60
66401;HTU21D;53211;45.040;38.788;2022-12-10T08:40:45;14.26;79.59
66401;HTU21D;53211;45.040;38.788;2022-12-10T08:43:11;14.30;79.55
66401;HTU21D;53211;45.040;38.788;2022-12-10T08:45:37;14.35;79.62
66401;HTU21D;53211;45.040;38.788;2022-12-10T08:48:03;14.39;79.60
66401;HTU21D;53211;45.040;38.788;2022-12-10T08:50:29;14.41;79.57
66401;HTU21D;53211;45.040;38.788;2022-12-10T08:52:55;14.45;79.64
66401;HTU21D;53211;45.040;38.788;2022-12-10T08:55:21;14.50;79.60
66401;HTU21D;53211;45.040;38.788;2022-12-10T08:57:47;14.53;79.63
66401;HTU21D;53211;45.040;38.788;2022-12-10T09:00:13;14.57;79.57
66401;HTU21D;53211;45.040;38.788;2022-12-10T09:02:39;14.60;79.51
66401;HTU21D;53211;45.040;38.788;2022-12-10T09:05:06;14.66;79.48
66401;HTU21D;53211;45.040;38.788;2022-12-10T09:07:33;14.70;79.39
66401;HTU21D;53211;45.040;38.788;2022-12-10T09:09:59;14.74;79.31
66401;HTU21D;53211;45.040;38.788;2022-12-10T09:12:25;14.82;79.24
66401;HTU21D;53211;45.040;38.788;2022-12-10T09:14:51;14.86;79.04
66401;HTU21D;53211;45.040;38.788;2022-12-10T09:17:17;14.93;79.15
66401;HTU21D;53211;45.040;38.788;2022-12-10T09:19:43;14.97;79.11
66401;HTU21D;53211;45.040;38.788;2022-12-10T09:22:09;15.02;78.91
66401;HTU21D;53211;45.040;38.788;2022-12-10T09:24:35;15.09;78.91
66401;HTU21D;53211;45.040;38.788;2022-12-10T09:27:02;15.14;79.00
66401;HTU21D;53211;45.040;38.788;2022-12-10T09:29:29;15.22;79.07
66401;HTU21D;53211;45.040;38.788;2022-12-10T09:31:54;15.28;79.09
66401;HTU21D;53211;45.040;38.788;2022-12-10T09:34:20;15.33;78.97
66401;HTU21D;53211;45.040;38.788;2022-12-10T09:36:47;15.42;79.04
66401;HTU21D;53211;45.040;38.788;2022-12-10T09:39:14;15.48;78.85
66401;HTU21D;53211;45.040;38.788;2022-12-10T09:47:06;15.72;78.71
66401;HTU21D;53211;45.040;38.788;2022-12-10T09:52:16;15.85;78.49
66401;HTU21D;53211;45.040;38.788;2022-12-10T09:54:53;15.92;78.57
66401;HTU21D;53211;45.040;38.788;2022-12-10T09:57:40;15.99;78.24
66401;HTU21D;53211;45.040;38.788;2022-12-10T10:02:39;16.11;77.71
66401;HTU21D;53211;45.040;38.788;2022-12-10T10:07:53;16.18;77.48
66401;HTU21D;53211;45.040;38.788;2022-12-10T10:12:47;16.21;77.08
66401;HTU21D;53211;45.040;38.788;2022-12-10T10:15:19;16.25;77.05
66401;HTU21D;53211;45.040;38.788;2022-12-10T10:17:47;16.27;76.76
66401;HTU21D;53211;45.040;38.788;2022-12-10T10:20:15;16.28;77.07
66401;HTU21D;53211;45.040;38.788;2022-12-10T10:22:42;16.32;77.03
66401;HTU21D;53211;45.040;38.788;2022-12-10T10:25:14;16.39;77.15
66401;HTU21D;53211;45.040;38.788;2022-12-10T10:27:41;16.43;76.31
66401;HTU21D;53211;45.040;38.788;2022-12-10T10:30:14;16.55;77.02
66401;HTU21D;53211;45.040;38.788;2022-12-10T10:37:46;16.92;76.65
66401;HTU21D;53211;45.040;38.788;2022-12-10T10:40:42;17.07;76.10
66401;HTU21D;53211;45.040;38.788;2022-12-10T10:43:15;17.15;74.84
66401;HTU21D;53211;45.040;38.788;2022-12-10T10:45:51;17.26;75.47
66401;HTU21D;53211;45.040;38.788;2022-12-10T10:48:24;17.35;75.80
66401;HTU21D;53211;45.040;38.788;2022-12-10T10:50:55;17.48;74.45
66401;HTU21D;53211;45.040;38.788;2022-12-10T11:01:18;17.76;74.11
66401;HTU21D;53211;45.040;38.788;2022-12-10T11:03:49;17.87;73.73
66401;HTU21D;53211;45.040;38.788;2022-12-10T11:06:18;17.98;73.43
66401;HTU21D;53211;45.040;38.788;2022-12-10T11:08:46;18.11;72.95
66401;HTU21D;53211;45.040;38.788;2022-12-10T11:11:20;18.23;72.00
66401;HTU21D;53211;45.040;38.788;2022-12-10T11:13:48;18.35;72.24
66401;HTU21D;53211;45.040;38.788;2022-12-10T11:16:20;18.49;72.77
66401;HTU21D;53211;45.040;38.788;2022-12-10T11:18:56;18.62;71.85
66401;HTU21D;53211;45.040;38.788;2022-12-10T11:21:29;18.72;71.79
66401;HTU21D;53211;45.040;38.788;2022-12-10T11:23:57;18.84;70.19
66401;HTU21D;53211;45.040;38.788;2022-12-10T11:31:56;19.27;70.20
66401;HTU21D;53211;45.040;38.788;2022-12-10T11:37:31;19.61;68.15
66401;HTU21D;53211;45.040;38.788;2022-12-10T11:40:24;19.65;67.79
66401;HTU21D;53211;45.040;38.788;2022-12-10T11:54:33;20.17;66.83
66401;HTU21D;53211;45.040;38.788;2022-12-10T12:00:02;20.63;64.53
66401;HTU21D;53211;45.040;38.788;2022-12-10T12:11:59;20.73;65.51
66401;HTU21D;53211;45.040;38.788;2022-12-10T12:14:43;20.88;64.50
66401;HTU21D;53211;45.040;38.788;2022-12-10T12:17:27;20.95;61.62
66401;HTU21D;53211;45.040;38.788;2022-12-10T12:20:00;20.87;63.06
66401;HTU21D;53211;45.040;38.788;2022-12-10T12:22:31;20.66;63.89
66401;HTU21D;53211;45.040;38.788;2022-12-10T12:25:10;20.34;62.97
66401;HTU21D;53211;45.040;38.788;2022-12-10T12:27:43;20.01;63.26
66401;HTU21D;53211;45.040;38.788;2022-12-10T12:30:15;19.72;62.95
66401;HTU21D;53211;45.040;38.788;2022-12-10T12:35:51;19.16;63.47
66401;HTU21D;53211;45.040;38.788;2022-12-10T12:46:09;18.27;64.65
66401;HTU21D;53211;45.040;38.788;2022-12-10T12:51:42;17.84;65.12
66401;HTU21D;53211;45.040;38.788;2022-12-10T12:54:13;17.66;65.69
66401;HTU21D;53211;45.040;38.788;2022-12-10T12:56:59;17.47;66.10
66401;HTU21D;53211;45.040;38.788;2022-12-10T13:04:50;16.94;66.92
66401;HTU21D;53211;45.040;38.788;2022-12-10T13:09:50;16.60;67.32
66401;HTU21D;53211;45.040;38.788;2022-12-10T13:12:30;16.41;67.59
66401;HTU21D;53211;45.040;38.788;2022-12-10T13:20:44;15.84;68.26
66401;HTU21D;53211;45.040;38.788;2022-12-10T13:23:29;15.62;68.41
66401;HTU21D;53211;45.040;38.788;2022-12-10T13:25:57;15.44;68.51
66401;HTU21D;53211;45.040;38.788;2022-12-10T13:34:04;14.85;68.89
66401;HTU21D;53211;45.040;38.788;2022-12-10T13:40:01;14.42;69.31
66401;HTU21D;53211;45.040;38.788;2022-12-10T13:42:33;14.25;69.42
66401;HTU21D;53211;45.040;38.788;2022-12-10T13:47:52;13.92;69.81
66401;HTU21D;53211;45.040;38.788;2022-12-10T13:53:19;13.66;70.38
66401;HTU21D;53211;45.040;38.788;2022-12-10T13:56:07;13.58;70.60
66401;HTU21D;53211;45.040;38.788;2022-12-10T14:06:58;13.10;71.03
66401;HTU21D;53211;45.040;38.788;2022-12-10T14:09:30;13.02;71.26
66401;HTU21D;53211;45.040;38.788;2022-12-10T14:12:07;12.95;71.43
66401;HTU21D;53211;45.040;38.788;2022-12-10T14:14:42;12.89;71.58
66401;HTU21D;53211;45.040;38.788;2022-12-10T14:17:15;12.84;71.66
66401;HTU21D;53211;45.040;38.788;2022-12-10T14:19:43;12.78;71.75
66401;HTU21D;53211;45.040;38.788;2022-12-10T14:22:18;12.75;72.00
66401;HTU21D;53211;45.040;38.788;2022-12-10T14:24:47;12.75;72.48
66401;HTU21D;53211;45.040;38.788;2022-12-10T14:27:25;12.77;72.38
66401;HTU21D;53211;45.040;38.788;2022-12-10T14:32:39;12.80;72.60
66401;HTU21D;53211;45.040;38.788;2022-12-10T14:35:11;12.84;72.54
66401;HTU21D;53211;45.040;38.788;2022-12-10T14:37:41;12.82;72.68
66401;HTU21D;53211;45.040;38.788;2022-12-10T14:40:12;12.81;72.74
66401;HTU21D;53211;45.040;38.788;2022-12-10T14:42:43;12.80;72.78
66401;HTU21D;53211;45.040;38.788;2022-12-10T14:45:12;12.79;72.83
66401;HTU21D;53211;45.040;38.788;2022-12-10T14:47:39;12.79;72.91
66401;HTU21D;53211;45.040;38.788;2022-12-10T14:50:13;12.76;72.70
66401;HTU21D;53211;45.040;38.788;2022-12-10T14:52:45;12.69;72.45
66401;HTU21D;53211;45.040;38.788;2022-12-10T14:55:17;12.58;72.28
66401;HTU21D;53211;45.040;38.788;2022-12-10T14:57:48;12.44;72.40
66401;HTU21D;53211;45.040;38.788;2022-12-10T15:00:19;12.32;72.35
66401;HTU21D;53211;45.040;38.788;2022-12-10T15:02:57;12.19;72.39
66401;HTU21D;53211;45.040;38.788;2022-12-10T15:05:27;12.04;72.30
66401;HTU21D;53211;45.040;38.788;2022-12-10T15:08:15;11.91;72.38
66401;HTU21D;53211;45.040;38.788;2022-12-10T15:10:45;11.75;72.46
66401;HTU21D;53211;45.040;38.788;2022-12-10T15:15:57;11.48;72.59
66401;HTU21D;53211;45.040;38.788;2022-12-10T15:18:37;11.34;72.64
66401;HTU21D;53211;45.040;38.788;2022-12-10T15:23:34;11.09;72.76
66401;HTU21D;53211;45.040;38.788;2022-12-10T15:26:04;10.98;72.87
66401;HTU21D;53211;45.040;38.788;2022-12-10T15:28:37;10.84;72.98
66401;HTU21D;53211;45.040;38.788;2022-12-10T15:33:58;10.59;73.15
66401;HTU21D;53211;45.040;38.788;2022-12-10T15:36:36;10.49;73.31
66401;HTU21D;53211;45.040;38.788;2022-12-10T15:39:31;10.38;73.57
66401;HTU21D;53211;45.040;38.788;2022-12-10T15:42:04;10.29;73.62
66401;HTU21D;53211;45.040;38.788;2022-12-10T15:47:20;0.00;73.63
66401;HTU21D;53211;45.040;38.788;2022-12-10T15:49:48;0.00;73.65
66401;HTU21D;53211;45.040;38.788;2022-12-10T15:52:16;9.96;73.74
66401;HTU21D;53211;45.040;38.788;2022-12-10T15:54:44;9.86;73.88
66401;HTU21D;53211;45.040;38.788;2022-12-10T15:57:19;9.80;74.01
66401;HTU21D;53211;45.040;38.788;2022-12-10T15:59:51;9.74;73.93
66401;HTU21D;53211;45.040;38.788;2022-12-10T16:07:36;9.46;73.87
66401;HTU21D;53211;45.040;38.788;2022-12-10T16:10:03;9.37;73.95
66401;HTU21D;53211;45.040;38.788;2022-12-10T16:12:32;9.26;74.00
66401;HTU21D;53211;45.040;38.788;2022-12-10T16:15:10;9.20;74.23
66401;HTU21D;53211;45.040;38.788;2022-12-10T16:17:37;9.16;74.46
66401;HTU21D;53211;45.040;38.788;2022-12-10T16:20:22;9.14;74.83
66401;HTU21D;53211;45.040;38.788;2022-12-10T16:22:54;9.15;74.82
66401;HTU21D;53211;45.040;38.788;2022-12-10T16:25:25;9.16;74.89
66401;HTU21D;53211;45.040;38.788;2022-12-10T16:27:53;9.18;74.69
66401;HTU21D;53211;45.040;38.788;2022-12-10T16:30:28;9.19;74.75
66401;HTU21D;53211;45.040;38.788;2022-12-10T16:33:01;9.20;75.01
66401;HTU21D;53211;45.040;38.788;2022-12-10T16:35:27;9.22;75.24
66401;HTU21D;53211;45.040;38.788;2022-12-10T16:37:53;9.24;74.98
66401;HTU21D;53211;45.040;38.788;2022-12-10T16:40:22;9.21;74.92
66401;HTU21D;53211;45.040;38.788;2022-12-10T16:42:49;9.19;74.82
66401;HTU21D;53211;45.040;38.788;2022-12-10T16:47:47;9.15;74.76
66401;HTU21D;53211;45.040;38.788;2022-12-10T16:50:14;9.16;75.01
66401;HTU21D;53211;45.040;38.788;2022-12-10T16:52:41;9.20;75.17
66401;HTU21D;53211;45.040;38.788;2022-12-10T16:55:12;9.25;75.34
66401;HTU21D;53211;45.040;38.788;2022-12-10T16:57:41;9.34;75.34
66401;HTU21D;53211;45.040;38.788;2022-12-10T17:00:09;0.00;75.41
66401;HTU21D;53211;45.040;38.788;2022-12-10T17:02:36;9.56;75.33
66401;HTU21D;53211;45.040;38.788;2022-12-10T17:05:10;9.67;75.32
66401;HTU21D;53211;45.040;38.788;2022-12-10T17:07:38;9.78;75.25
66401;HTU21D;53211;45.040;38.788;2022-12-10T17:10:05;9.86;75.15
66401;HTU21D;53211;45.040;38.788;2022-12-10T17:12:31;9.94;75.10
66401;HTU21D;53211;45.040;38.788;2022-12-10T17:14:57;10.01;75.11
66401;HTU21D;53211;45.040;38.788;2022-12-10T17:17:29;10.07;75.05
66401;HTU21D;53211;45.040;38.788;2022-12-10T17:19:55;10.13;74.99
66401;HTU21D;53211;45.040;38.788;2022-12-10T17:22:21;10.22;74.99
66401;HTU21D;53211;45.040;38.788;2022-12-10T17:24:47;10.26;74.96
66401;HTU21D;53211;45.040;38.788;2022-12-10T17:27:16;10.33;75.00
66401;HTU21D;53211;45.040;38.788;2022-12-10T17:29:45;10.39;74.90
66401;HTU21D;53211;45.040;38.788;2022-12-10T17:32:19;10.44;74.88
66401;HTU21D;53211;45.040;38.788;2022-12-10T17:34:45;10.46;74.83
66401;HTU21D;53211;45.040;38.788;2022-12-10T17:37:16;10.50;74.80
66401;HTU21D;53211;45.040;38.788;2022-12-10T17:39:45;10.50;74.76
66401;HTU21D;53211;45.040;38.788;2022-12-10T17:42:11;10.49;74.67
66401;HTU21D;53211;45.040;38.788;2022-12-10T17:44:37;10.45;74.62
66401;HTU21D;53211;45.040;38.788;2022-12-10T17:47:23;10.41;74.70
66401;HTU21D;53211;45.040;38.788;2022-12-10T17:49:50;10.37;74.68
66401;HTU21D;53211;45.040;38.788;2022-12-10T17:52:16;10.33;74.76
66401;HTU21D;53211;45.040;38.788;2022-12-10T17:54:44;10.28;74.86
66401;HTU21D;53211;45.040;38.788;2022-12-10T17:57:18;10.26;74.89
66401;HTU21D;53211;45.040;38.788;2022-12-10T17:59:46;10.25;74.93